createdAt,value
2022-12-15T00:01:20.171Z,31.77
2022-12-15T00:03:10.816Z,29.83
2022-12-15T00:05:01.341Z,26.13
2022-12-15T00:06:52.012Z,29.45
2022-12-15T00:08:42.446Z,27.33
2022-12-15T00:10:33.065Z,26.02
2022-12-15T00:12:23.679Z,27.10
2022-12-15T00:14:14.421Z,29.27
2022-12-15T00:16:06.245Z,26.55
2022-12-15T00:17:56.726Z,26.30
2022-12-15T00:19:47.535Z,22.98
2022-12-15T00:21:38.307Z,25.33
2022-12-15T00:23:31.362Z,24.85
2022-12-15T00:25:21.931Z,26.55
2022-12-15T00:27:12.824Z,25.52
2022-12-15T00:29:03.508Z,26.75
2022-12-15T00:30:58.892Z,22.23
2022-12-15T00:32:52.735Z,23.10
2022-12-15T00:34:43.047Z,22.70
2022-12-15T00:36:33.729Z,26.20
2022-12-15T00:38:32.543Z,25.13
2022-12-15T00:40:05.705Z,26.10
2022-12-15T00:41:37.745Z,23.02
2022-12-15T00:43:15.984Z,26.85
2022-12-15T00:44:48.003Z,22.85
2022-12-15T00:46:38.599Z,26.20
2022-12-15T00:48:10.566Z,22.65
2022-12-15T00:50:01.265Z,25.13
2022-12-15T00:51:51.842Z,24.52
2022-12-15T00:53:43.437Z,24.30
2022-12-15T00:55:33.970Z,23.55
2022-12-15T00:57:24.653Z,21.45
2022-12-15T00:59:15.194Z,24.45
2022-12-15T01:01:05.660Z,23.45
2022-12-15T01:02:56.452Z,21.75
2022-12-15T01:04:47.514Z,22.67
2022-12-15T01:06:38.681Z,24.05
2022-12-15T01:08:29.458Z,22.20
2022-12-15T01:10:20.223Z,22.52
2022-12-15T01:12:11.818Z,23.17
2022-12-15T01:14:02.529Z,23.52
2022-12-15T01:15:55.563Z,25.20
2022-12-15T01:17:45.943Z,23.77
2022-12-15T01:19:36.628Z,22.88
2022-12-15T01:21:09.657Z,21.58
2022-12-15T01:22:41.864Z,25.80
2022-12-15T01:24:13.877Z,25.65
2022-12-15T01:25:45.835Z,23.35
2022-12-15T01:27:24.760Z,22.73
2022-12-15T01:28:56.790Z,24.92
2022-12-15T01:30:31.530Z,23.60
2022-12-15T01:32:03.588Z,26.40
2022-12-15T01:33:35.583Z,25.20
2022-12-15T01:35:08.575Z,27.30
2022-12-15T01:36:40.583Z,24.35
2022-12-15T01:38:12.588Z,24.25
2022-12-15T01:40:05.153Z,25.13
2022-12-15T01:41:37.086Z,27.63
2022-12-15T01:43:30.824Z,27.73
2022-12-15T01:45:24.896Z,23.58
2022-12-15T01:46:57.150Z,24.40
2022-12-15T01:48:34.196Z,27.92
2022-12-15T01:50:13.452Z,25.77
2022-12-15T01:51:49.267Z,26.02
2022-12-15T01:53:21.252Z,25.70
2022-12-15T01:54:56.894Z,27.45
2022-12-15T01:56:33.997Z,25.10
2022-12-15T01:58:09.783Z,24.65
2022-12-15T01:59:46.721Z,22.42
2022-12-15T02:01:18.822Z,27.38
2022-12-15T02:02:51.663Z,23.83
2022-12-15T02:04:24.100Z,27.50
2022-12-15T02:05:57.511Z,24.05
2022-12-15T02:07:29.499Z,26.85
2022-12-15T02:09:01.849Z,24.05
2022-12-15T02:11:08.767Z,24.45
2022-12-15T02:13:08.480Z,29.98
2022-12-15T02:14:47.903Z,26.33
2022-12-15T02:16:42.713Z,27.17
2022-12-15T02:18:17.796Z,26.73
2022-12-15T02:20:01.678Z,29.75
2022-12-15T02:21:41.101Z,27.42
2022-12-15T02:23:16.194Z,24.40
2022-12-15T02:25:02.915Z,31.23
2022-12-15T02:26:53.643Z,29.60
2022-12-15T02:28:53.610Z,31.08
2022-12-15T02:31:41.122Z,27.77
2022-12-15T02:33:24.953Z,30.55
2022-12-15T02:35:04.225Z,28.08
2022-12-15T02:36:39.303Z,27.42
2022-12-15T02:38:11.435Z,24.85
2022-12-15T02:39:44.061Z,31.38
2022-12-15T02:41:38.580Z,30.47
2022-12-15T02:44:55.206Z,28.02
2022-12-15T02:48:52.083Z,32.72
2022-12-15T02:50:51.663Z,32.55
2022-12-15T02:52:26.290Z,29.33
2022-12-15T02:54:29.037Z,29.58
2022-12-15T02:56:11.254Z,27.80
2022-12-15T02:57:58.992Z,26.92
2022-12-15T02:59:47.814Z,26.55
2022-12-15T03:01:31.523Z,27.27
2022-12-15T03:03:03.797Z,28.70
2022-12-15T03:04:37.520Z,26.10
2022-12-15T03:07:43.089Z,27.23
2022-12-15T03:09:15.051Z,30.98
2022-12-15T03:10:47.661Z,28.60
2022-12-15T03:12:19.657Z,26.23
2022-12-15T03:13:52.139Z,20.73
2022-12-15T03:15:24.110Z,20.38
2022-12-15T03:16:56.417Z,17.38
2022-12-15T03:18:28.560Z,17.42
2022-12-15T03:20:00.623Z,21.77
2022-12-15T03:21:32.596Z,19.75
2022-12-15T03:23:04.560Z,22.05
2022-12-15T03:24:36.528Z,25.98
2022-12-15T03:26:12.384Z,20.45
2022-12-15T03:27:46.309Z,18.02
2022-12-15T03:29:18.523Z,16.80
2022-12-15T03:30:50.887Z,15.90
2022-12-15T03:32:22.981Z,15.73
2022-12-15T03:33:55.828Z,15.05
2022-12-15T03:35:27.786Z,17.05
2022-12-15T03:36:59.748Z,15.93
2022-12-15T03:38:31.663Z,15.35
2022-12-15T03:40:03.795Z,16.80
2022-12-15T03:41:35.762Z,17.00
2022-12-15T03:43:07.728Z,16.67
2022-12-15T03:44:39.717Z,17.17
2022-12-15T03:47:51.197Z,17.20
2022-12-15T03:49:23.154Z,17.17
2022-12-15T03:50:55.574Z,18.05
2022-12-15T03:52:27.567Z,16.77
2022-12-15T03:53:59.560Z,16.13
2022-12-15T03:55:31.716Z,17.58
2022-12-15T03:57:03.801Z,16.90
2022-12-15T03:58:35.822Z,17.30
2022-12-15T04:00:08.682Z,17.55
2022-12-15T04:01:46.417Z,16.17
2022-12-15T04:03:18.630Z,17.30
2022-12-15T04:04:50.640Z,17.42
2022-12-15T04:06:22.996Z,18.42
2022-12-15T04:07:56.295Z,16.35
2022-12-15T04:09:28.231Z,15.43
2022-12-15T04:11:00.202Z,17.10
2022-12-15T04:12:32.171Z,17.25
2022-12-15T04:14:07.278Z,16.17
2022-12-15T04:17:12.516Z,19.98
2022-12-15T04:18:44.707Z,20.50
2022-12-15T04:20:16.711Z,17.30
2022-12-15T04:21:49.744Z,19.35
2022-12-15T04:23:22.577Z,22.25
2022-12-15T04:25:12.880Z,18.60
2022-12-15T04:27:03.429Z,17.90
2022-12-15T04:28:54.038Z,19.17
2022-12-15T04:30:44.842Z,23.25
2022-12-15T04:32:35.746Z,22.98
2022-12-15T04:34:31.113Z,24.73
2022-12-15T04:36:21.947Z,22.52
2022-12-15T04:38:12.420Z,21.70
2022-12-15T04:40:07.020Z,24.77
2022-12-15T04:43:48.227Z,25.27
2022-12-15T04:45:41.119Z,24.88
2022-12-15T04:47:31.757Z,26.15
2022-12-15T04:49:22.568Z,26.23
2022-12-15T04:51:13.184Z,32.78
2022-12-15T04:53:03.897Z,33.45
2022-12-15T04:54:54.554Z,39.90
2022-12-15T04:56:45.093Z,36.95
2022-12-15T04:58:35.620Z,29.33
2022-12-15T05:00:27.614Z,26.73
2022-12-15T05:02:18.296Z,27.42
2022-12-15T05:04:08.891Z,27.20
2022-12-15T05:05:59.317Z,24.77
2022-12-15T05:07:50.055Z,25.35
2022-12-15T05:09:40.764Z,25.60
2022-12-15T05:11:31.395Z,24.35
2022-12-15T05:13:25.747Z,28.33
2022-12-15T05:15:16.527Z,26.52
2022-12-15T05:17:07.587Z,26.08
2022-12-15T05:18:58.235Z,28.08
2022-12-15T05:20:50.173Z,25.98
2022-12-15T05:22:40.870Z,28.00
2022-12-15T05:24:31.606Z,32.35
2022-12-15T05:26:22.313Z,31.33
2022-12-15T05:28:13.058Z,34.80
2022-12-15T05:30:03.704Z,31.50
2022-12-15T05:31:55.407Z,27.70
2022-12-15T05:33:27.628Z,29.63
2022-12-15T05:34:59.765Z,31.13
2022-12-15T05:36:31.825Z,29.83
2022-12-15T05:38:05.802Z,25.30
2022-12-15T05:39:37.844Z,23.08
2022-12-15T05:41:09.928Z,27.27
2022-12-15T05:42:42.040Z,27.48
2022-12-15T05:44:14.425Z,26.80
2022-12-15T05:45:46.471Z,32.03
2022-12-15T05:47:18.513Z,28.67
2022-12-15T05:48:50.808Z,30.98
2022-12-15T05:50:23.727Z,26.23
2022-12-15T05:51:57.516Z,29.65
2022-12-15T05:53:29.844Z,27.98
2022-12-15T05:55:02.090Z,29.17
2022-12-15T05:56:34.122Z,28.75
2022-12-15T05:58:06.190Z,28.85
2022-12-15T05:59:38.236Z,34.90
2022-12-15T06:01:13.841Z,40.33
2022-12-15T06:02:45.912Z,37.40
2022-12-15T06:04:18.078Z,48.92
2022-12-15T06:05:56.161Z,42.65
2022-12-15T06:07:28.567Z,47.15
2022-12-15T06:09:00.634Z,44.13
2022-12-15T06:10:32.657Z,42.95
2022-12-15T06:12:04.847Z,37.38
2022-12-15T06:13:36.948Z,25.55
2022-12-15T06:15:09.421Z,27.58
2022-12-15T06:16:50.042Z,28.13
2022-12-15T06:18:24.077Z,20.40
2022-12-15T06:19:56.165Z,24.30
2022-12-15T06:21:35.758Z,24.85
2022-12-15T06:23:07.875Z,25.20
2022-12-15T06:24:39.899Z,21.08
2022-12-15T06:26:34.632Z,23.65
2022-12-15T06:28:06.680Z,24.58
2022-12-15T06:29:38.687Z,21.95
2022-12-15T06:31:12.196Z,24.02
2022-12-15T06:35:48.242Z,20.10
2022-12-15T06:37:20.268Z,21.10
2022-12-15T06:38:52.743Z,26.15
2022-12-15T06:40:24.755Z,22.42
2022-12-15T06:41:56.748Z,21.83
2022-12-15T06:43:29.595Z,21.08
2022-12-15T06:45:01.920Z,22.42
2022-12-15T06:46:35.366Z,20.25
2022-12-15T06:48:07.523Z,23.02
2022-12-15T06:49:39.594Z,23.00
2022-12-15T06:51:16.812Z,23.75
2022-12-15T06:52:49.500Z,26.90
2022-12-15T06:54:21.688Z,24.83
2022-12-15T06:55:53.661Z,23.48
2022-12-15T06:57:25.627Z,26.42
2022-12-15T06:58:59.103Z,25.10
2022-12-15T07:00:34.697Z,25.20
2022-12-15T07:02:10.450Z,30.67
2022-12-15T07:03:44.843Z,26.70
2022-12-15T07:05:17.072Z,22.20
2022-12-15T07:06:49.450Z,24.00
2022-12-15T07:08:24.443Z,27.35
2022-12-15T07:10:00.734Z,31.27
2022-12-15T07:11:33.271Z,32.97
2022-12-15T07:13:05.182Z,27.85
2022-12-15T07:14:37.101Z,23.80
2022-12-15T07:16:10.380Z,24.30
2022-12-15T07:17:42.566Z,24.20
2022-12-15T07:19:14.780Z,25.50
2022-12-15T07:20:46.854Z,23.95
2022-12-15T07:22:22.769Z,25.70
2022-12-15T07:23:56.734Z,28.60
2022-12-15T07:25:29.926Z,28.35
2022-12-15T07:27:01.917Z,26.40
2022-12-15T07:28:34.916Z,29.08
2022-12-15T07:30:07.961Z,28.25
2022-12-15T07:31:40.622Z,25.77
2022-12-15T07:33:12.764Z,31.77
2022-12-15T07:34:44.830Z,33.38
2022-12-15T07:36:16.945Z,28.98
2022-12-15T07:37:48.970Z,28.77
2022-12-15T07:39:21.515Z,31.88
2022-12-15T07:40:53.791Z,28.92
2022-12-15T07:42:25.790Z,33.15
2022-12-15T07:43:58.692Z,30.10
2022-12-15T07:45:30.793Z,29.85
2022-12-15T07:47:02.811Z,30.15
2022-12-15T07:48:35.013Z,29.90
2022-12-15T07:50:08.230Z,29.15
2022-12-15T07:51:41.563Z,25.98
2022-12-15T07:53:13.608Z,27.42
2022-12-15T07:54:45.785Z,26.88
2022-12-15T07:56:21.104Z,33.83
2022-12-15T07:57:53.109Z,33.17
2022-12-15T07:59:25.176Z,36.67
2022-12-15T08:01:01.230Z,35.85
2022-12-15T08:02:33.397Z,36.42
2022-12-15T08:04:05.754Z,33.63
2022-12-15T08:05:38.076Z,28.30
2022-12-15T08:07:10.690Z,31.92
2022-12-15T08:08:44.594Z,28.20
2022-12-15T08:10:16.978Z,25.85
2022-12-15T08:11:49.019Z,25.45
2022-12-15T08:13:52.448Z,29.15
2022-12-15T08:15:13.147Z,26.20
2022-12-15T08:16:45.709Z,26.77
2022-12-15T08:18:17.853Z,24.57
2022-12-15T08:19:49.833Z,26.35
2022-12-15T08:21:21.836Z,29.52
2022-12-15T08:22:53.883Z,26.75
2022-12-15T08:24:25.942Z,26.30
2022-12-15T08:26:12.204Z,26.77
2022-12-15T08:27:47.362Z,28.95
2022-12-15T08:31:19.875Z,33.90
2022-12-15T08:32:57.819Z,30.40
2022-12-15T08:34:29.835Z,28.95
2022-12-15T08:36:04.874Z,26.52
2022-12-15T08:37:36.997Z,30.58
2022-12-15T08:39:09.050Z,27.50
2022-12-15T08:40:41.006Z,24.98
2022-12-15T08:42:13.065Z,28.92
2022-12-15T08:43:48.552Z,23.48
2022-12-15T08:45:21.148Z,21.10
2022-12-15T08:46:53.191Z,20.70
2022-12-15T08:48:25.236Z,25.20
2022-12-15T08:49:57.253Z,22.27
2022-12-15T08:51:31.327Z,26.27
2022-12-15T08:53:29.527Z,24.17
2022-12-15T08:54:55.767Z,23.05
2022-12-15T08:56:28.224Z,23.02
2022-12-15T08:58:00.313Z,25.52
2022-12-15T08:59:32.399Z,23.13
2022-12-15T09:01:06.603Z,39.42
2022-12-15T09:04:12.630Z,25.40
2022-12-15T09:05:44.729Z,37.30
2022-12-15T09:07:16.685Z,25.45
2022-12-15T09:08:50.216Z,30.05
2022-12-15T09:10:23.877Z,37.78
2022-12-15T09:11:55.856Z,38.75
2022-12-15T09:13:29.225Z,29.00
2022-12-15T09:15:01.612Z,26.92
2022-12-15T09:16:33.773Z,26.25
2022-12-15T09:18:06.026Z,22.77
2022-12-15T09:19:38.162Z,20.63
2022-12-15T09:21:11.552Z,26.90
2022-12-15T09:22:43.563Z,28.73
2022-12-15T09:24:23.192Z,22.33
2022-12-15T09:26:02.329Z,25.88
2022-12-15T09:27:35.547Z,21.10
2022-12-15T09:29:07.486Z,21.60
2022-12-15T09:30:39.582Z,22.30
2022-12-15T09:32:14.308Z,21.10
2022-12-15T09:33:46.682Z,27.35
2022-12-15T09:35:18.739Z,23.58
2022-12-15T09:36:50.801Z,19.60
2022-12-15T09:40:01.830Z,18.73
2022-12-15T09:41:35.497Z,20.38
2022-12-15T09:43:33.359Z,21.95
2022-12-15T09:45:14.421Z,20.60
2022-12-15T09:47:12.381Z,20.40
2022-12-15T09:48:45.899Z,20.65
2022-12-15T09:50:24.007Z,22.88
2022-12-15T09:52:08.990Z,18.67
2022-12-15T09:53:59.164Z,21.27
2022-12-15T09:55:35.694Z,22.15
2022-12-15T09:57:26.871Z,18.27
2022-12-15T09:59:10.270Z,16.73
2022-12-15T10:00:59.718Z,17.52
2022-12-15T10:02:38.331Z,22.45
2022-12-15T10:04:16.043Z,20.50
2022-12-15T10:06:18.226Z,27.08
2022-12-15T10:07:52.067Z,18.75
2022-12-15T10:09:28.733Z,22.50
2022-12-15T10:11:05.926Z,18.02
2022-12-15T10:12:45.504Z,21.15
2022-12-15T10:14:28.877Z,20.73
2022-12-15T10:16:08.090Z,20.70
2022-12-15T10:17:50.312Z,22.73
2022-12-15T10:21:38.719Z,17.13
2022-12-15T10:23:17.501Z,17.42
2022-12-15T10:26:43.161Z,16.95
2022-12-15T10:30:09.496Z,15.15
2022-12-15T10:31:58.384Z,19.08
2022-12-15T10:33:38.751Z,21.13
2022-12-15T10:35:16.968Z,17.52
2022-12-15T10:36:51.732Z,17.45
2022-12-15T10:38:27.538Z,23.70
2022-12-15T10:39:59.615Z,17.10
2022-12-15T10:41:34.129Z,26.73
2022-12-15T10:43:14.158Z,18.45
2022-12-15T10:44:50.308Z,18.55
2022-12-15T10:46:28.017Z,18.00
2022-12-15T10:48:02.745Z,20.08
2022-12-15T10:49:34.709Z,17.98
2022-12-15T10:51:32.016Z,17.23
2022-12-15T10:53:09.685Z,25.35
2022-12-15T10:54:45.763Z,18.90
2022-12-15T10:56:28.752Z,17.75
2022-12-15T10:58:05.596Z,20.23
2022-12-15T10:59:39.011Z,18.30
2022-12-15T11:01:18.306Z,22.08
2022-12-15T11:02:50.641Z,18.88
2022-12-15T11:04:33.222Z,20.17
2022-12-15T11:06:14.928Z,18.95
2022-12-15T11:07:55.201Z,17.33
2022-12-15T11:09:36.607Z,18.33
2022-12-15T11:11:57.731Z,19.48
2022-12-15T11:13:33.187Z,22.23
2022-12-15T11:15:25.623Z,21.83
2022-12-15T11:16:59.278Z,25.05
2022-12-15T11:20:11.531Z,21.77
2022-12-15T11:21:46.702Z,21.25
2022-12-15T11:23:46.610Z,18.50
2022-12-15T11:25:42.720Z,17.45
2022-12-15T11:27:27.684Z,17.30
2022-12-15T11:29:03.099Z,19.45
2022-12-15T11:30:39.505Z,17.60
2022-12-15T11:32:13.185Z,20.35
2022-12-15T11:33:45.262Z,17.58
2022-12-15T11:35:44.895Z,21.10
2022-12-15T11:37:41.897Z,19.15
2022-12-15T11:39:23.275Z,22.55
2022-12-15T11:40:57.036Z,20.20
2022-12-15T11:42:48.826Z,20.92
2022-12-15T11:44:45.293Z,20.20
2022-12-15T11:46:24.179Z,22.20
2022-12-15T11:48:08.406Z,19.55
2022-12-15T11:49:52.431Z,18.52
2022-12-15T11:51:29.806Z,16.27
2022-12-15T11:53:12.994Z,17.70
2022-12-15T11:54:55.817Z,17.67
2022-12-15T11:56:34.825Z,18.50
2022-12-15T11:58:12.740Z,18.83
2022-12-15T12:00:19.634Z,22.65
2022-12-15T12:02:19.723Z,20.27
2022-12-15T12:04:21.299Z,21.25
2022-12-15T12:06:08.737Z,23.30
2022-12-15T12:07:53.309Z,19.83
2022-12-15T12:09:35.545Z,19.75
2022-12-15T12:11:23.716Z,22.50
2022-12-15T12:13:04.759Z,20.88
2022-12-15T12:14:50.411Z,19.90
2022-12-15T12:16:44.559Z,19.58
2022-12-15T12:18:26.721Z,20.65
2022-12-15T12:20:03.861Z,21.10
2022-12-15T12:21:51.260Z,20.90
2022-12-15T12:23:29.490Z,21.48
2022-12-15T12:25:06.517Z,24.25
2022-12-15T12:26:42.470Z,22.00
2022-12-15T12:28:21.752Z,23.05
2022-12-15T12:30:18.457Z,21.67
2022-12-15T12:32:14.530Z,19.73
2022-12-15T12:33:49.921Z,20.35
2022-12-15T12:35:39.830Z,19.08
2022-12-15T12:37:42.219Z,21.50
2022-12-15T12:39:20.718Z,20.70
2022-12-15T12:40:52.990Z,21.10
2022-12-15T12:42:34.121Z,21.85
2022-12-15T12:44:22.742Z,19.23
2022-12-15T12:46:01.363Z,21.13
2022-12-15T12:47:36.856Z,21.35
2022-12-15T12:49:21.353Z,21.15
2022-12-15T12:51:14.509Z,19.95
2022-12-15T12:52:55.028Z,19.88
2022-12-15T12:56:30.815Z,21.17
2022-12-15T12:58:03.026Z,20.98
2022-12-15T12:59:38.573Z,22.05
2022-12-15T13:01:31.331Z,23.13
2022-12-15T13:03:23.728Z,20.90
2022-12-15T13:04:58.271Z,23.38
2022-12-15T13:06:36.359Z,22.55
2022-12-15T13:08:09.087Z,22.67
2022-12-15T13:12:15.097Z,24.30
2022-12-15T13:13:53.933Z,25.85
2022-12-15T13:15:29.208Z,28.73
2022-12-15T13:19:07.969Z,28.15
2022-12-15T13:20:40.676Z,26.25
2022-12-15T13:22:32.616Z,29.48
2022-12-15T13:24:04.772Z,27.05
2022-12-15T13:25:38.316Z,28.65
2022-12-15T13:28:45.554Z,28.73
2022-12-15T13:30:18.362Z,31.63
2022-12-15T13:31:51.264Z,28.33
2022-12-15T13:33:24.120Z,30.40
2022-12-15T13:34:56.579Z,32.73
2022-12-15T13:36:37.717Z,29.65
2022-12-15T13:38:18.102Z,31.40
2022-12-15T13:41:25.386Z,29.35
2022-12-15T13:42:59.340Z,30.55
2022-12-15T13:44:36.476Z,29.85
2022-12-15T13:46:16.832Z,33.40
2022-12-15T13:47:52.572Z,31.98
2022-12-15T13:49:53.266Z,33.42
2022-12-15T13:51:38.723Z,27.30
2022-12-15T13:53:19.724Z,28.83
2022-12-15T13:54:56.929Z,29.13
2022-12-15T13:56:40.898Z,30.65
2022-12-15T13:58:17.681Z,32.40
2022-12-15T13:59:58.069Z,32.03
2022-12-15T14:03:24.663Z,28.83
2022-12-15T14:05:26.069Z,30.35
2022-12-15T14:07:01.498Z,28.25
2022-12-15T14:08:33.564Z,33.95
2022-12-15T14:10:08.819Z,28.70
2022-12-15T14:11:58.080Z,31.90
2022-12-15T14:13:32.197Z,32.55
2022-12-15T14:15:04.913Z,30.95
2022-12-15T14:16:36.952Z,31.92
2022-12-15T14:18:29.085Z,29.55
2022-12-15T14:20:12.438Z,35.05
2022-12-15T14:21:58.890Z,34.05
2022-12-15T14:23:41.538Z,30.27
2022-12-15T14:25:22.881Z,29.30
2022-12-15T14:26:55.050Z,35.88
2022-12-15T14:28:33.960Z,32.80
2022-12-15T14:30:13.995Z,31.27
2022-12-15T14:31:51.101Z,34.13
2022-12-15T14:33:28.097Z,32.47
2022-12-15T14:35:01.968Z,33.90
2022-12-15T14:36:34.638Z,33.75
2022-12-15T14:38:08.945Z,34.33
2022-12-15T14:39:50.131Z,35.42
2022-12-15T14:41:31.678Z,31.48
2022-12-15T14:43:05.192Z,37.38
2022-12-15T14:44:48.078Z,35.28
2022-12-15T14:46:26.216Z,36.92
2022-12-15T14:48:39.383Z,35.05
2022-12-15T14:50:01.486Z,35.53
2022-12-15T14:51:42.873Z,36.90
2022-12-15T14:53:17.880Z,41.75
2022-12-15T14:55:01.239Z,37.95
2022-12-15T14:56:33.282Z,41.08
2022-12-15T14:58:41.134Z,42.47
2022-12-15T15:00:37.097Z,43.35
2022-12-15T15:02:20.251Z,35.80
2022-12-15T15:03:04.321Z,19.88
2022-12-15T15:03:11.858Z,28.83
2022-12-15T15:04:00.030Z,39.40
2022-12-15T15:05:33.427Z,44.50
2022-12-15T15:07:08.347Z,41.65
2022-12-15T15:10:24.406Z,46.20
2022-12-15T15:12:05.249Z,39.53
2022-12-15T15:13:40.310Z,41.13
2022-12-15T15:15:19.536Z,41.70
2022-12-15T15:17:07.235Z,34.72
2022-12-15T15:18:39.358Z,36.08
2022-12-15T15:20:27.179Z,33.78
2022-12-15T15:22:02.297Z,38.03
2022-12-15T15:23:34.615Z,38.53
2022-12-15T15:25:25.656Z,37.63
2022-12-15T15:27:24.954Z,40.90
2022-12-15T15:28:57.387Z,39.97
2022-12-15T15:30:30.697Z,43.08
2022-12-15T15:32:17.522Z,45.13
2022-12-15T15:33:49.595Z,38.83
2022-12-15T15:35:23.070Z,39.92
2022-12-15T15:36:55.256Z,44.28
2022-12-15T15:38:40.143Z,44.33
2022-12-15T15:40:14.781Z,68.72
2022-12-15T15:41:46.728Z,59.00
2022-12-15T15:43:19.774Z,58.45
2022-12-15T15:44:51.887Z,44.33
2022-12-15T15:46:26.460Z,45.13
2022-12-15T15:48:01.553Z,51.72
2022-12-15T15:49:37.910Z,60.25
2022-12-15T15:51:11.790Z,55.42
2022-12-15T15:52:44.316Z,49.38
2022-12-15T15:54:22.998Z,44.47
2022-12-15T15:55:56.271Z,46.78
2022-12-15T15:57:28.349Z,43.72
2022-12-15T15:59:10.014Z,48.50
2022-12-15T16:00:42.205Z,41.08
2022-12-15T16:02:14.893Z,45.85
2022-12-15T16:03:47.146Z,38.90
2022-12-15T16:05:21.315Z,39.42
2022-12-15T16:06:53.847Z,46.75
2022-12-15T16:08:29.106Z,45.40
2022-12-15T16:10:01.594Z,44.55
2022-12-15T16:11:34.843Z,63.20
2022-12-15T16:13:10.182Z,54.70
2022-12-15T16:14:42.188Z,50.80
2022-12-15T16:16:19.389Z,40.90
2022-12-15T16:17:52.383Z,43.22
2022-12-15T16:19:27.997Z,42.88
2022-12-15T16:21:00.036Z,43.58
2022-12-15T16:22:33.935Z,48.53
2022-12-15T16:24:11.719Z,49.58
2022-12-15T16:25:50.607Z,45.72
2022-12-15T16:27:23.269Z,42.75
2022-12-15T16:28:55.849Z,44.08
2022-12-15T16:30:28.917Z,42.92
2022-12-15T16:32:01.027Z,37.60
2022-12-15T16:33:33.105Z,41.65
2022-12-15T16:35:05.505Z,40.63
2022-12-15T16:36:37.643Z,43.42
2022-12-15T16:38:38.556Z,41.85
2022-12-15T16:40:16.088Z,38.80
2022-12-15T16:41:48.143Z,36.60
2022-12-15T16:43:22.219Z,38.85
2022-12-15T16:44:57.009Z,39.78
2022-12-15T16:46:29.079Z,47.28
2022-12-15T16:48:01.376Z,42.60
2022-12-15T16:49:39.767Z,46.55
2022-12-15T16:51:31.811Z,45.53
2022-12-15T16:53:04.807Z,47.80
2022-12-15T16:54:36.804Z,41.20
2022-12-15T16:56:13.385Z,54.72
2022-12-15T16:57:45.871Z,52.08
2022-12-15T16:59:36.430Z,43.85
2022-12-15T17:01:10.882Z,43.97
2022-12-15T17:02:44.383Z,46.13
2022-12-15T17:05:50.888Z,39.22
2022-12-15T17:07:24.511Z,38.20
2022-12-15T17:10:30.322Z,36.58
2022-12-15T17:12:02.571Z,38.25
2022-12-15T17:13:45.339Z,48.30
2022-12-15T17:15:23.670Z,56.72
2022-12-15T17:16:56.028Z,36.50
2022-12-15T17:18:28.514Z,43.92
2022-12-15T17:21:54.074Z,39.88
2022-12-15T17:23:26.247Z,35.78
2022-12-15T17:24:58.244Z,66.93
2022-12-15T17:26:32.229Z,45.45
2022-12-15T17:28:06.866Z,56.03
2022-12-15T17:29:39.644Z,52.45
2022-12-15T17:31:22.824Z,41.55
2022-12-15T17:32:54.939Z,39.05
2022-12-15T17:34:31.624Z,33.88
2022-12-15T17:36:07.281Z,49.65
2022-12-15T17:37:40.079Z,61.67
2022-12-15T17:39:12.274Z,58.28
2022-12-15T17:40:45.323Z,49.05
2022-12-15T17:42:21.304Z,55.65
2022-12-15T17:44:09.743Z,39.58
2022-12-15T17:48:52.020Z,60.10
2022-12-15T17:50:25.382Z,80.13
2022-12-15T17:51:58.158Z,63.65
2022-12-15T17:53:31.007Z,67.38
2022-12-15T17:55:08.407Z,73.45
2022-12-15T17:56:42.472Z,60.75
2022-12-15T17:58:25.932Z,58.25
2022-12-15T17:59:59.096Z,53.08
2022-12-15T18:01:31.311Z,75.53
2022-12-15T18:03:03.682Z,52.88
2022-12-15T18:04:36.153Z,71.45
2022-12-15T18:06:14.989Z,68.18
2022-12-15T18:07:50.819Z,91.32
2022-12-15T18:09:23.222Z,100.43
2022-12-15T18:10:57.600Z,94.03
2022-12-15T18:12:30.014Z,66.95
2022-12-15T18:14:02.076Z,53.47
2022-12-15T18:15:34.109Z,53.05
2022-12-15T18:17:06.124Z,91.57
2022-12-15T18:18:38.406Z,50.70
2022-12-15T18:20:10.887Z,64.80
2022-12-15T18:21:42.999Z,51.20
2022-12-15T18:23:20.710Z,46.70
2022-12-15T18:24:54.081Z,53.42
2022-12-15T18:26:26.057Z,61.03
2022-12-15T18:27:58.943Z,51.60
2022-12-15T18:29:30.979Z,57.72
2022-12-15T18:31:26.779Z,45.40
2022-12-15T18:32:59.534Z,62.50
2022-12-15T18:34:31.600Z,63.22
2022-12-15T18:36:03.950Z,48.70
2022-12-15T18:37:36.305Z,39.63
2022-12-15T18:39:19.904Z,35.65
2022-12-15T18:40:53.997Z,30.98
2022-12-15T18:42:26.080Z,39.13
2022-12-15T18:43:59.210Z,37.17
2022-12-15T18:45:31.326Z,36.63
2022-12-15T18:47:03.511Z,43.78
2022-12-15T18:48:38.116Z,35.80
2022-12-15T18:50:24.652Z,34.63
2022-12-15T18:51:56.643Z,31.27
2022-12-15T18:53:35.166Z,30.83
2022-12-15T18:55:16.942Z,34.67
2022-12-15T18:56:49.131Z,34.17
2022-12-15T18:58:24.881Z,31.25
2022-12-15T19:00:16.035Z,30.45
2022-12-15T19:01:49.417Z,27.42
2022-12-15T19:04:53.965Z,25.30
2022-12-15T19:06:35.231Z,29.67
2022-12-15T19:08:13.564Z,25.38
2022-12-15T19:09:45.633Z,24.63
2022-12-15T19:11:25.579Z,21.05
2022-12-15T19:12:58.828Z,17.17
2022-12-15T19:14:43.369Z,15.07
2022-12-15T19:16:20.223Z,15.23
2022-12-15T19:18:10.636Z,15.52
2022-12-15T19:21:49.333Z,12.85
2022-12-15T19:23:21.838Z,14.35
2022-12-15T19:24:56.794Z,17.52
2022-12-15T19:26:28.973Z,19.02
2022-12-15T19:28:01.299Z,16.67
2022-12-15T19:29:33.265Z,19.10
2022-12-15T19:31:05.456Z,18.40
2022-12-15T19:32:37.553Z,17.98
2022-12-15T19:34:10.344Z,18.90
2022-12-15T19:35:44.604Z,19.50
2022-12-15T19:37:24.823Z,17.60
2022-12-15T19:38:56.908Z,22.08
2022-12-15T19:40:30.993Z,20.88
2022-12-15T19:42:06.552Z,22.77
2022-12-15T19:43:42.752Z,21.65
2022-12-15T19:45:20.566Z,22.13
2022-12-15T19:46:52.815Z,22.65
2022-12-15T19:48:24.814Z,26.67
2022-12-15T19:51:38.269Z,25.63
2022-12-15T19:53:26.288Z,26.00
2022-12-15T19:54:58.344Z,23.90
2022-12-15T19:56:30.512Z,28.08
2022-12-15T19:58:27.102Z,29.67
2022-12-15T19:59:59.972Z,25.55
2022-12-15T20:01:32.061Z,28.92
2022-12-15T20:03:04.405Z,36.40
2022-12-15T20:04:36.433Z,32.95
2022-12-15T20:06:23.979Z,37.22
2022-12-15T20:07:56.120Z,38.35
2022-12-15T20:09:28.260Z,29.38
2022-12-15T20:11:00.961Z,43.80
2022-12-15T20:12:32.954Z,30.33
2022-12-15T20:14:12.925Z,32.45
2022-12-15T20:15:45.798Z,36.45
2022-12-15T20:17:17.842Z,34.63
2022-12-15T20:18:55.059Z,36.17
2022-12-15T20:20:28.833Z,47.78
2022-12-15T20:22:02.357Z,35.00
2022-12-15T20:25:23.840Z,69.90
2022-12-15T20:26:55.890Z,47.83
2022-12-15T20:28:29.972Z,66.03
2022-12-15T20:30:01.904Z,72.07
2022-12-15T20:31:34.384Z,60.15
2022-12-15T20:33:06.475Z,60.00
2022-12-15T20:34:38.445Z,54.28
2022-12-15T20:36:17.780Z,63.30
2022-12-15T20:37:50.290Z,74.55
2022-12-15T20:39:28.036Z,79.57
2022-12-15T20:41:01.464Z,58.60
2022-12-15T20:42:33.467Z,53.22
2022-12-15T20:44:06.016Z,76.18
2022-12-15T20:45:38.043Z,52.80
2022-12-15T20:47:28.125Z,57.00
2022-12-15T20:49:00.189Z,45.05
2022-12-15T20:50:37.820Z,49.72
2022-12-15T20:52:19.277Z,73.03
2022-12-15T20:53:52.470Z,46.10
2022-12-15T20:55:24.858Z,43.75
2022-12-15T20:56:56.901Z,52.55
2022-12-15T20:58:33.373Z,51.22
2022-12-15T21:00:06.616Z,41.70
2022-12-15T21:01:39.751Z,47.70
2022-12-15T21:03:26.263Z,39.83
2022-12-15T21:04:58.302Z,42.88
2022-12-15T21:06:30.895Z,60.35
2022-12-15T21:08:10.402Z,46.92
2022-12-15T21:09:42.483Z,53.08
2022-12-15T21:11:23.028Z,56.85
2022-12-15T21:12:55.552Z,56.10
2022-12-15T21:14:27.713Z,64.50
2022-12-15T21:15:59.715Z,61.33
2022-12-15T21:17:31.681Z,57.65
2022-12-15T21:19:19.877Z,69.53
2022-12-15T21:20:55.621Z,82.85
2022-12-15T21:22:28.302Z,87.45
2022-12-15T21:24:02.054Z,64.30
2022-12-15T21:25:34.856Z,44.55
2022-12-15T21:27:09.676Z,43.47
2022-12-15T21:28:41.693Z,51.38
2022-12-15T21:30:21.985Z,42.65
2022-12-15T21:31:54.049Z,45.13
2022-12-15T21:33:26.128Z,46.70
2022-12-15T21:34:58.110Z,60.90
2022-12-15T21:36:30.202Z,52.42
2022-12-15T21:38:02.245Z,59.80
2022-12-15T21:39:36.382Z,62.75
2022-12-15T21:41:13.288Z,78.95
2022-12-15T21:42:45.316Z,59.72
2022-12-15T21:44:18.679Z,50.60
2022-12-15T21:45:50.728Z,54.38
2022-12-15T21:47:47.993Z,45.28
2022-12-15T21:49:20.788Z,41.15
2022-12-15T21:50:52.874Z,42.28
2022-12-15T21:52:26.187Z,53.42
2022-12-15T21:53:58.386Z,57.10
2022-12-15T21:55:30.992Z,52.42
2022-12-15T21:57:03.125Z,45.03